Niederfeulen, Luxembourg
Current Conditions -  °F | °C
As of 2:20 AM on Saturday 20 Dec 2014 (Local Time) from ELLX Reporting Station
NA  
Wind Chill: 31°   Ceiling: NA
Heat Index: 37°   Visibility: 6mi
Dew Point: 36°   Wind: 9mph
Humidity: 93%   Direction: 250°WSW
Pressure: 30.21"   Gusts: NA
Location:  49.86°N, 6.05°E
Report Text: ELLX 200120Z AUTO 25008KT 9999 NDV 03/02 Q1023
Loading
Personal Weather Stations






























Interactive Weather Map New forecast layout! Learn more

10-Day Weather Forecast

Advertisements
Track Severe Weather on mobile